Time;durP1;ratioP1;P1;durP2;ratioP2;P2;SDS_P1;SDS_P2;PMS_P1;PMS_P2;Temp;Humidity;BMP_temperature;BMP_pressure;BME280_temperature;BME280_humidity;BME280_pressure;Samples;Min_cycle;Max_cycle;Signal;HPM_P1;HPM_P2
2022/03/10 00:02:25;;;;;;;18.10;9.95;;;;;;;-1.32;73.48;103038.45;1755912;80;21532;-96
2022/03/10 00:08:51;;;;;;;13.72;8.55;;;;;;;-1.38;73.45;103037.78;1761715;81;21049;-95
2022/03/10 00:11:31;;;;;;;19.27;9.68;;;;;;;-1.42;73.45;103033.95;1728516;81;21033;-96
2022/03/10 00:14:12;;;;;;;17.48;9.30;;;;;;;-1.44;73.45;103039.70;1728939;81;20946;-96
2022/03/10 00:16:53;;;;;;;13.50;8.93;;;;;;;-1.45;73.50;103044.31;1724749;81;20944;-95
2022/03/10 00:19:25;;;;;;;18.17;9.58;;;;;;;-1.47;73.48;103048.02;1762561;81;21030;-96
2022/03/10 00:21:51;;;;;;;18.87;9.75;;;;;;;-1.49;73.48;103052.09;1686980;80;80629;-93
2022/03/10 00:24:18;;;;;;;18.07;9.88;;;;;;;-1.50;73.53;103063.20;1659854;86;21076;-92
2022/03/10 00:26:45;;;;;;;14.68;8.38;;;;;;;-1.51;73.53;103061.34;1665133;84;21182;-92
2022/03/10 00:29:12;;;;;;;14.93;8.70;;;;;;;-1.51;73.56;103059.14;1663310;84;21143;-92
2022/03/10 00:31:40;;;;;;;14.07;8.65;;;;;;;-1.51;73.58;103058.77;1713902;83;21727;-93
2022/03/10 00:34:07;;;;;;;12.33;8.30;;;;;;;-1.54;73.49;103061.00;1696805;82;21562;-92
2022/03/10 00:36:34;;;;;;;13.48;8.78;;;;;;;-1.57;73.49;103064.17;1681219;84;21138;-93
2022/03/10 00:39:00;;;;;;;13.43;8.98;;;;;;;-1.58;73.54;103067.52;1676374;84;21094;-92
2022/03/10 00:41:29;;;;;;;15.38;9.00;;;;;;;-1.58;73.56;103067.86;1657201;86;21064;-93
2022/03/10 00:43:55;;;;;;;13.65;8.90;;;;;;;-1.60;73.57;103073.23;1657125;86;21800;-93
2022/03/10 00:46:22;;;;;;;15.70;9.23;;;;;;;-1.62;73.62;103074.35;1657268;86;21497;-92
2022/03/10 00:48:51;;;;;;;14.43;8.48;;;;;;;-1.62;73.60;103080.80;1657410;86;21066;-95
2022/03/10 00:51:18;;;;;;;16.97;9.83;;;;;;;-1.63;73.63;103083.25;1657645;86;21146;-94
2022/03/10 00:54:12;;;;;;;16.70;8.80;;;;;;;-1.62;73.63;103081.19;1658844;86;21157;-96
2022/03/10 00:56:27;;;;;;;14.58;8.78;;;;;;;-1.64;73.60;103087.47;1710336;83;21057;-94
2022/03/10 00:58:54;;;;;;;15.85;8.23;;;;;;;-1.66;73.57;103085.09;1740328;82;20980;-95
2022/03/10 01:01:28;;;;;;;15.78;8.25;;;;;;;-1.68;73.59;103089.17;1717974;82;21046;-96
2022/03/10 01:03:55;;;;;;;12.47;8.78;;;;;;;-1.69;73.59;103090.28;1656915;86;21076;-94
2022/03/10 01:06:28;;;;;;;15.43;8.90;;;;;;;-1.72;73.62;103096.03;1656988;84;21756;-95
2022/03/10 01:08:59;;;;;;;20.62;9.20;;;;;;;-1.71;73.70;103099.53;1654274;86;21043;-94
2022/03/10 01:11:26;;;;;;;13.03;8.63;;;;;;;-1.85;73.70;103079.92;1657192;86;21039;-94
2022/03/10 01:13:53;;;;;;;17.02;8.93;;;;;;;-1.75;73.71;103099.55;1661069;86;21061;-95
2022/03/10 01:16:19;;;;;;;17.73;9.95;;;;;;;-1.76;73.69;103101.61;1717400;83;21021;-91
2022/03/10 01:18:46;;;;;;;16.48;9.53;;;;;;;-1.79;73.70;103100.87;1712793;83;21940;-92
2022/03/10 01:21:13;;;;;;;17.10;9.58;;;;;;;-1.78;73.67;103107.89;1714348;82;21768;-93
2022/03/10 01:23:39;;;;;;;17.32;9.83;;;;;;;-1.82;73.61;103104.77;1748546;81;21057;-90
2022/03/10 01:26:06;;;;;;;15.80;8.80;;;;;;;-1.85;73.68;103106.64;1736741;81;21508;-94
2022/03/10 01:28:33;;;;;;;14.60;9.55;;;;;;;-1.86;73.69;103106.12;1716971;83;21050;-90
2022/03/10 01:30:59;;;;;;;17.80;10.15;;;;;;;-1.87;73.72;103106.84;1716885;83;21340;-95
2022/03/10 01:33:26;;;;;;;16.57;9.85;;;;;;;-1.88;73.69;103113.12;1716909;83;21684;-94
2022/03/10 01:35:53;;;;;;;17.77;9.95;;;;;;;-1.89;73.75;103120.34;1717143;83;21093;-95
2022/03/10 01:38:19;;;;;;;18.98;9.38;;;;;;;-1.92;73.77;103119.59;1716944;83;21081;-95
2022/03/10 01:40:46;;;;;;;18.52;9.63;;;;;;;-1.92;73.73;103127.72;1716833;83;21014;-93
2022/03/10 01:43:13;;;;;;;16.27;9.95;;;;;;;-1.96;73.75;103127.36;1716789;83;21101;-91
2022/03/10 01:45:40;;;;;;;20.90;11.53;;;;;;;-1.98;73.77;103131.82;1716762;83;22441;-96
2022/03/10 01:48:08;;;;;;;18.17;10.45;;;;;;;-2.02;73.77;103133.12;1715969;83;21034;-93
2022/03/10 02:10:40;;;;;;;16.65;10.58;;;;;;;-2.10;73.99;103144.59;1667304;86;36801;-93
2022/03/10 02:13:08;;;;;;;18.55;9.48;;;;;;;-2.15;74.05;103139.84;1717387;83;21775;-92
2022/03/10 02:18:21;;;;;;;19.40;10.05;;;;;;;-2.29;74.11;103137.36;1717461;83;21073;-92
2022/03/10 02:20:48;;;;;;;17.70;9.93;;;;;;;-2.21;74.15;103148.56;1716957;83;21720;-93
2022/03/10 02:23:14;;;;;;;22.37;10.55;;;;;;;-2.26;74.11;103152.26;1717688;83;21041;-93
2022/03/10 02:25:49;;;;;;;18.75;9.85;;;;;;;-2.29;74.14;103152.84;1718261;83;21747;-95
2022/03/10 02:28:29;;;;;;;22.45;12.33;;;;;;;-2.32;74.22;103161.50;1693181;83;21056;-95
2022/03/10 02:31:08;;;;;;;34.98;14.55;;;;;;;-2.33;74.29;103165.19;1718241;83;21503;-94
2022/03/10 02:33:40;;;;;;;28.98;13.78;;;;;;;-2.38;74.25;103170.73;1716797;83;21022;-95
2022/03/10 02:36:15;;;;;;;27.70;14.35;;;;;;;-2.39;74.36;103171.47;1648819;86;21073;-96
2022/03/10 02:38:48;;;;;;;28.77;12.85;;;;;;;-2.42;74.26;103172.77;1679453;85;21088;-95
2022/03/10 02:41:24;;;;;;;28.38;13.03;;;;;;;-2.46;74.35;103171.53;1656134;83;21055;-93
2022/03/10 02:43:52;;;;;;;30.45;13.62;;;;;;;-2.47;74.36;103176.50;1702873;83;21094;-94
2022/03/10 02:50:27;;;;;;;30.40;12.25;;;;;;;-2.50;74.39;103176.13;1716411;83;21584;-96
2022/03/10 02:57:45;;;;;;;;;;;;;;;;;;;;;
2022/03/10 03:00:14;;;;;;;21.90;10.88;;;;;;;-2.71;74.47;103164.23;1712463;81;21110;-95
2022/03/10 03:02:47;;;;;;;17.55;10.03;;;;;;;-2.64;74.33;103192.20;1716719;82;21115;-95
2022/03/10 03:05:32;;;;;;;19.55;10.95;;;;;;;-2.66;74.39;103196.27;1717011;83;20972;-96
2022/03/10 03:11:00;;;;;;;18.82;10.43;;;;;;;-2.72;74.42;103199.42;1766393;80;21057;-96
2022/03/10 03:13:35;;;;;;;17.92;10.48;;;;;;;-2.74;74.40;103206.02;1818895;78;21551;-95
2022/03/10 03:16:03;;;;;;;23.95;11.22;;;;;;;-2.79;74.44;103202.01;1795410;78;21076;-91
2022/03/10 03:18:29;;;;;;;23.73;11.78;;;;;;;-2.83;74.39;103209.74;1826625;78;21044;-91
2022/03/10 03:20:56;;;;;;;23.20;12.28;;;;;;;-2.86;74.40;103214.52;1826801;77;21736;-92
2022/03/10 03:23:25;;;;;;;19.37;11.45;;;;;;;-2.87;74.65;103216.57;1801450;77;21073;-93
2022/03/10 03:25:52;;;;;;;20.08;10.78;;;;;;;-2.85;74.63;103218.95;1788187;80;21054;-92
2022/03/10 03:28:27;;;;;;;21.33;11.60;;;;;;;-3.01;74.50;103195.59;1732864;80;21050;-93
2022/03/10 03:30:53;;;;;;;22.10;11.22;;;;;;;-2.90;74.48;103216.58;1730353;80;21086;-94
2022/03/10 03:33:19;;;;;;;20.02;10.55;;;;;;;-2.93;74.50;103218.39;1794235;78;22123;-95
2022/03/10 03:35:48;;;;;;;21.65;11.12;;;;;;;-2.98;74.45;103220.44;1817845;78;21029;-92
2022/03/10 03:38:15;;;;;;;21.00;10.93;;;;;;;-3.00;74.53;103228.36;1792719;80;21065;-90
2022/03/10 03:40:50;;;;;;;16.45;9.93;;;;;;;-3.02;74.51;103232.76;1822621;77;21049;-93
2022/03/10 03:47:21;;;;;;;20.12;11.05;;;;;;;-3.06;74.63;103238.29;1690828;82;21782;-92
2022/03/10 03:55:13;;;;;;;23.90;12.00;;;;;;;-3.10;74.64;103243.44;1712381;83;21121;-95
2022/03/10 03:57:50;;;;;;;20.27;11.48;;;;;;;-3.14;74.71;103246.39;1711764;83;21314;-91
2022/03/10 04:00:20;;;;;;;17.80;10.65;;;;;;;-3.26;74.72;103232.06;1710016;83;21105;-94
2022/03/10 04:28:31;;;;;;;16.45;9.58;;;;;;;-3.34;74.80;103297.72;1615961;87;21221;-94
2022/03/10 04:30:49;;;;;;;15.63;9.40;;;;;;;-3.36;74.89;103300.48;1598324;88;21175;-93
2022/03/10 04:33:34;;;;;;;;;;;;;;;;;;;;;
2022/03/10 04:36:08;;;;;;;13.70;8.88;;;;;;;-3.39;74.87;103298.80;1612491;87;21643;-95
2022/03/10 04:38:36;;;;;;;17.05;8.95;;;;;;;-3.41;74.90;103306.72;1645363;87;21094;-93
2022/03/10 04:41:04;;;;;;;15.68;9.75;;;;;;;-3.42;74.85;103308.72;1646908;87;21138;-93
2022/03/10 04:43:39;;;;;;;15.63;9.48;;;;;;;-3.49;74.81;103305.21;1655494;83;21393;-94
2022/03/10 04:46:30;;;;;;;16.75;9.28;;;;;;;-3.44;74.83;103317.00;1690508;83;21053;-96
2022/03/10 04:49:02;;;;;;;13.65;8.68;;;;;;;-3.45;74.79;103322.88;1670221;85;21500;-95
2022/03/10 04:51:42;;;;;;;13.95;9.15;;;;;;;-3.45;74.82;103315.15;1670593;85;21145;-92
2022/03/10 04:54:15;;;;;;;15.28;9.83;;;;;;;-3.44;74.81;103329.88;1719934;78;21706;-90
2022/03/10 05:01:29;;;;;;;21.17;10.43;;;;;;;-3.44;74.90;103332.08;1812169;79;21038;-93
2022/03/10 05:03:57;;;;;;;23.75;9.45;;;;;;;-3.45;74.77;103337.98;1800584;79;21028;-83
2022/03/10 05:06:24;;;;;;;23.50;11.30;;;;;;;-3.48;74.73;103344.03;1804335;79;21056;-81
2022/03/10 05:08:50;;;;;;;22.55;10.43;;;;;;;-3.48;74.81;103343.12;1798723;79;21076;-83
2022/03/10 05:11:17;;;;;;;20.23;10.35;;;;;;;-3.47;74.84;103352.33;1801550;79;21582;-81
2022/03/10 05:13:44;;;;;;;18.77;10.68;;;;;;;-3.47;74.82;103357.48;1734621;79;21066;-82
2022/03/10 05:16:10;;;;;;;19.70;10.58;;;;;;;-3.47;74.75;103356.53;1749365;81;21754;-82
2022/03/10 05:18:37;;;;;;;19.90;9.93;;;;;;;-3.48;74.70;103364.63;1753217;81;21074;-82
2022/03/10 05:21:04;;;;;;;18.80;9.28;;;;;;;-3.47;74.72;103366.83;1744614;82;21059;-82
2022/03/10 05:23:30;;;;;;;17.45;9.85;;;;;;;-3.45;74.75;103371.45;1737754;80;21548;-81
2022/03/10 05:25:57;;;;;;;15.75;9.73;;;;;;;-3.43;74.78;103367.41;1738056;82;21068;-80
2022/03/10 05:28:23;;;;;;;16.75;9.90;;;;;;;-3.41;74.74;103368.52;1734818;82;21745;-81
2022/03/10 05:30:50;;;;;;;16.37;10.40;;;;;;;-3.39;74.72;103367.42;1739997;80;21095;-82
2022/03/10 05:33:17;;;;;;;18.50;10.20;;;;;;;-3.37;74.69;103372.40;1723319;80;21072;-82
2022/03/10 05:35:43;;;;;;;16.23;9.43;;;;;;;-3.33;74.68;103375.52;1738753;81;21503;-81
2022/03/10 05:38:10;;;;;;;15.70;9.83;;;;;;;-3.29;74.65;103378.48;1739414;82;21524;-80
2022/03/10 05:40:36;;;;;;;18.67;10.00;;;;;;;-3.25;74.70;103377.75;1739895;81;21760;-81
2022/03/10 05:43:03;;;;;;;23.45;10.32;;;;;;;-3.20;74.71;103377.04;1744924;80;21043;-87
2022/03/10 05:45:34;;;;;;;20.82;11.22;;;;;;;-3.17;74.61;103374.48;1742620;80;21078;-90
2022/03/10 05:48:00;;;;;;;17.00;9.23;;;;;;;-3.12;74.54;103380.17;1713426;81;21084;-84
2022/03/10 05:50:27;;;;;;;19.15;10.55;;;;;;;-3.07;74.55;103382.05;1735472;81;21110;-80
2022/03/10 05:52:54;;;;;;;20.02;10.30;;;;;;;-3.03;74.47;103386.45;1728779;82;21776;-79
2022/03/10 05:55:23;;;;;;;21.00;10.35;;;;;;;-2.99;74.43;103382.22;1740331;81;21570;-78
2022/03/10 05:57:50;;;;;;;17.30;8.73;;;;;;;-2.95;74.43;103385.75;1748470;81;21100;-81
2022/03/10 06:00:17;;;;;;;17.45;10.05;;;;;;;-2.88;74.37;103389.06;1734792;82;21098;-81
2022/03/10 06:02:43;;;;;;;14.65;10.23;;;;;;;-2.84;74.29;103395.14;1743408;82;21126;-84
2022/03/10 06:05:10;;;;;;;18.67;10.45;;;;;;;-2.80;74.20;103399.55;1720899;82;21755;-83
2022/03/10 06:07:37;;;;;;;21.65;9.20;;;;;;;-2.76;74.14;103403.42;1738145;81;21261;-83
2022/03/10 06:10:04;;;;;;;18.07;9.73;;;;;;;-2.69;74.20;103410.25;1731730;81;21075;-82
2022/03/10 06:12:31;;;;;;;19.77;10.28;;;;;;;-2.64;74.12;103409.16;1781011;80;20994;-83
2022/03/10 06:15:03;;;;;;;16.90;8.90;;;;;;;-2.60;73.95;103416.52;1813764;78;21115;-81
2022/03/10 06:17:30;;;;;;;17.65;10.03;;;;;;;-2.57;73.91;103417.82;1787660;78;21740;-83
2022/03/10 06:20:06;;;;;;;15.78;9.38;;;;;;;-2.51;73.99;103424.08;1804584;78;21637;-92
2022/03/10 06:26:38;;;;;;;17.20;8.68;;;;;;;-2.46;73.77;103415.59;1813767;78;21129;-95
2022/03/10 06:29:08;;;;;;;17.85;10.00;;;;;;;-2.29;73.74;103439.54;1769552;80;21008;-92
2022/03/10 06:31:34;;;;;;;20.20;10.82;;;;;;;-2.24;73.64;103441.02;1786010;78;21815;-75
2022/03/10 06:34:01;;;;;;;19.90;10.93;;;;;;;-2.19;73.51;103443.80;1816914;78;21033;-75
2022/03/10 06:36:28;;;;;;;27.93;12.28;;;;;;;-2.15;73.48;103442.12;1816912;78;21582;-75
2022/03/10 06:38:54;;;;;;;21.02;10.72;;;;;;;-2.12;73.43;103448.95;1811390;77;21081;-75
2022/03/10 06:41:23;;;;;;;20.27;11.63;;;;;;;-2.07;73.42;103446.53;1815117;77;21040;-75
2022/03/10 06:43:49;;;;;;;30.23;14.60;;;;;;;-1.99;73.36;103453.55;1814185;78;21761;-75
2022/03/10 06:46:16;;;;;;;31.55;17.00;;;;;;;-1.94;73.25;103452.78;1814601;77;21030;-75
2022/03/10 06:48:42;;;;;;;23.77;11.85;;;;;;;-1.88;73.19;103455.17;1815616;78;21059;-75
2022/03/10 06:51:09;;;;;;;19.42;10.38;;;;;;;-1.84;73.01;103462.19;1816116;78;21051;-74
2022/03/10 06:53:35;;;;;;;16.67;9.95;;;;;;;-1.83;72.92;103462.72;1814605;77;21007;-75
2022/03/10 06:56:02;;;;;;;19.98;10.25;;;;;;;-1.81;72.74;103466.41;1816260;78;21740;-75
2022/03/10 06:58:29;;;;;;;14.60;9.63;;;;;;;-1.76;72.73;103465.67;1816178;78;20986;-75
2022/03/10 07:00:56;;;;;;;18.02;9.90;;;;;;;-1.73;72.62;103466.02;1816481;78;22295;-75
2022/03/10 07:03:23;;;;;;;19.05;10.95;;;;;;;-1.69;72.68;103473.75;1815755;78;21016;-75
2022/03/10 07:05:50;;;;;;;18.35;9.98;;;;;;;-1.63;72.56;103474.50;1812652;78;21082;-75
2022/03/10 07:08:16;;;;;;;16.62;9.70;;;;;;;-1.61;72.47;103479.09;1818029;78;21138;-75
2022/03/10 07:10:43;;;;;;;18.60;10.50;;;;;;;-1.58;72.38;103483.34;1816330;78;21378;-75
2022/03/10 07:13:10;;;;;;;16.20;9.93;;;;;;;-1.54;72.31;103484.59;1758399;80;21105;-75
2022/03/10 07:15:36;;;;;;;21.50;10.78;;;;;;;-1.50;72.30;103479.08;1751760;80;21492;-76
2022/03/10 07:18:03;;;;;;;20.70;10.18;;;;;;;-1.45;72.16;103486.05;1764272;81;21355;-76
2022/03/10 07:20:29;;;;;;;17.30;10.35;;;;;;;-1.41;72.05;103484.03;1764363;80;21895;-76
2022/03/10 07:22:56;;;;;;;17.62;9.58;;;;;;;-1.37;71.90;103493.03;1750929;81;21067;-76
2022/03/10 07:25:22;;;;;;;18.20;9.28;;;;;;;-1.33;71.78;103496.55;1764444;81;21674;-76
2022/03/10 07:27:49;;;;;;;17.90;9.78;;;;;;;-1.28;71.68;103498.36;1764022;80;21054;-75
2022/03/10 07:30:17;;;;;;;26.85;13.40;;;;;;;-1.24;71.60;103501.50;1759141;80;21595;-76
2022/03/10 07:32:43;;;;;;;35.85;14.90;;;;;;;-1.18;71.48;103503.88;1762363;81;21741;-75
2022/03/10 07:35:10;;;;;;;32.03;14.90;;;;;;;-1.13;71.42;103508.28;1752824;81;21063;-75
2022/03/10 07:37:40;;;;;;;28.55;13.18;;;;;;;-1.08;71.30;103499.02;1745652;82;21592;-75
2022/03/10 07:40:08;;;;;;;22.30;11.18;;;;;;;-1.02;71.37;103497.14;1745673;82;21240;-76
2022/03/10 07:42:34;;;;;;;16.62;9.08;;;;;;;-0.94;71.25;103502.28;1745593;82;21071;-76
2022/03/10 07:45:01;;;;;;;18.40;9.48;;;;;;;-0.89;71.08;103500.77;1745473;81;21676;-75
2022/03/10 07:47:27;;;;;;;13.65;8.00;;;;;;;-0.84;71.00;103502.23;1745240;80;21063;-76
2022/03/10 07:49:54;;;;;;;19.02;8.90;;;;;;;-0.77;70.98;103498.67;1745662;80;21055;-76
2022/03/10 07:52:21;;;;;;;15.43;9.25;;;;;;;-0.75;70.82;103501.09;1745583;80;21219;-76
2022/03/10 07:54:47;;;;;;;15.90;10.45;;;;;;;-0.68;70.90;103494.94;1744940;82;21540;-76
2022/03/10 07:57:14;;;;;;;23.30;10.30;;;;;;;-0.60;70.91;103491.20;1745673;80;22989;-76
2022/03/10 07:59:40;;;;;;;14.73;9.13;;;;;;;-0.48;70.82;103490.75;1724586;82;21046;-76
2022/03/10 08:02:07;;;;;;;16.30;8.93;;;;;;;-0.43;70.42;103487.94;1745604;80;21587;-76
2022/03/10 08:04:34;;;;;;;16.07;9.38;;;;;;;-0.42;70.07;103491.44;1745488;82;21082;-76
2022/03/10 08:07:00;;;;;;;15.50;8.55;;;;;;;-0.40;69.85;103489.94;1745517;80;21012;-76
2022/03/10 08:09:27;;;;;;;15.72;7.53;;;;;;;-0.33;69.87;103490.27;1743327;81;21801;-76
2022/03/10 08:11:54;;;;;;;14.80;9.08;;;;;;;-0.28;69.56;103493.92;1737584;81;21059;-76
2022/03/10 08:14:20;;;;;;;12.80;7.65;;;;;;;-0.24;69.30;103497.78;1731498;82;21069;-76
2022/03/10 08:16:47;;;;;;;19.00;9.18;;;;;;;-0.18;69.13;103497.17;1737700;82;21106;-75
2022/03/10 08:19:13;;;;;;;14.10;8.15;;;;;;;-0.17;68.88;103500.67;1745568;82;21579;-75
2022/03/10 08:21:40;;;;;;;15.70;8.20;;;;;;;-0.12;68.95;103501.73;1745439;82;21810;-75
2022/03/10 08:24:07;;;;;;;15.50;9.43;;;;;;;-0.07;68.86;103502.27;1743869;82;21114;-75
2022/03/10 08:26:34;;;;;;;17.10;9.28;;;;;;;-0.02;68.78;103502.03;1735258;82;21087;-75
2022/03/10 08:29:00;;;;;;;19.12;11.25;;;;;;;0.07;68.79;103495.64;1745040;80;21412;-75
2022/03/10 08:31:27;;;;;;;23.95;12.75;;;;;;;0.16;68.67;103503.14;1745027;81;21084;-75
2022/03/10 08:33:54;;;;;;;19.10;10.40;;;;;;;0.21;68.56;103502.38;1745339;81;21772;-75
2022/03/10 08:36:20;;;;;;;15.25;9.20;;;;;;;0.26;68.53;103502.88;1744591;82;21072;-75
2022/03/10 08:38:47;;;;;;;23.38;9.20;;;;;;;0.36;68.58;103502.77;1745149;81;21124;-75
2022/03/10 08:41:14;;;;;;;15.23;8.83;;;;;;;0.44;68.37;103498.43;1741099;82;21078;-75
2022/03/10 08:43:41;;;;;;;30.10;16.27;;;;;;;0.46;68.03;103503.79;1744464;81;21039;-75
2022/03/10 08:46:07;;;;;;;30.65;18.32;;;;;;;0.45;67.96;103508.06;1744947;80;21739;-75
2022/03/10 08:48:35;;;;;;;17.05;10.53;;;;;;;0.50;67.95;103503.37;1733259;82;21100;-75
2022/03/10 08:51:03;;;;;;;16.50;10.28;;;;;;;0.57;67.85;103502.91;1740843;81;21554;-75
2022/03/10 08:53:30;;;;;;;14.07;8.70;;;;;;;0.64;67.71;103501.92;1744902;81;21071;-75
2022/03/10 08:55:57;;;;;;;17.75;9.48;;;;;;;0.68;67.43;103497.61;1745250;80;21090;-75
2022/03/10 08:58:24;;;;;;;18.23;9.18;;;;;;;0.73;67.45;103497.74;1741133;80;21751;-75
2022/03/10 09:00:51;;;;;;;11.88;8.18;;;;;;;0.77;67.23;103497.31;1736690;80;21683;-75
2022/03/10 09:03:18;;;;;;;14.53;8.53;;;;;;;0.77;66.81;103488.24;1736040;80;21569;-75
2022/03/10 09:05:45;;;;;;;12.60;7.45;;;;;;;0.78;66.89;103494.34;1730209;81;21063;-75
2022/03/10 09:08:12;;;;;;;23.35;12.07;;;;;;;0.81;66.57;103498.92;1727124;81;21502;-75
2022/03/10 09:10:39;;;;;;;15.70;8.95;;;;;;;0.81;66.47;103489.84;1720680;80;22616;-74
2022/03/10 09:13:06;;;;;;;14.15;7.70;;;;;;;0.85;66.49;103495.94;1765948;80;21042;-75
2022/03/10 09:15:33;;;;;;;15.88;9.55;;;;;;;0.84;66.27;103496.29;1814573;78;21068;-75
2022/03/10 09:17:59;;;;;;;13.53;8.70;;;;;;;0.87;66.17;103493.12;1819222;77;21646;-75
2022/03/10 09:20:26;;;;;;;13.35;7.97;;;;;;;0.94;66.32;103493.95;1821922;77;21138;-75
2022/03/10 09:22:53;;;;;;;14.93;8.93;;;;;;;1.05;66.21;103491.58;1814584;77;21640;-74
2022/03/10 09:25:19;;;;;;;22.42;11.63;;;;;;;1.15;65.95;103491.83;1813047;78;21073;-75
2022/03/10 09:27:47;;;;;;;14.53;7.40;;;;;;;1.23;65.57;103488.37;1812795;77;21371;-75
2022/03/10 09:30:13;;;;;;;13.58;8.00;;;;;;;1.26;65.17;103496.84;1809907;77;21060;-75
2022/03/10 09:32:45;;;;;;;13.78;7.78;;;;;;;1.28;64.87;103494.06;1805931;77;21048;-75
2022/03/10 09:35:15;;;;;;;11.53;7.67;;;;;;;1.32;64.79;103492.33;1804175;78;21747;-76
2022/03/10 09:37:42;;;;;;;13.80;7.70;;;;;;;1.39;64.77;103496.12;1817506;78;21100;-73
2022/03/10 09:40:10;;;;;;;13.00;7.72;;;;;;;1.45;64.46;103497.16;1821790;77;21065;-75
2022/03/10 09:42:37;;;;;;;12.05;7.50;;;;;;;1.48;64.27;103497.11;1800709;78;21068;-75
2022/03/10 09:45:08;;;;;;;10.10;6.42;;;;;;;1.54;63.99;103502.94;1818940;78;21076;-74
2022/03/10 09:47:37;;;;;;;9.43;6.15;;;;;;;1.58;63.80;103502.88;1809173;77;22605;-73
2022/03/10 09:50:15;;;;;;;24.72;13.45;;;;;;;1.57;63.11;103498.83;1805511;78;21043;-73
2022/03/10 09:52:43;;;;;;;27.52;15.30;;;;;;;1.60;62.70;103503.96;1817492;78;21017;-72
2022/03/10 09:55:10;;;;;;;12.63;6.67;;;;;;;1.64;62.36;103494.82;1811474;77;21031;-73
2022/03/10 09:57:40;;;;;;;12.93;6.65;;;;;;;1.66;61.92;103499.41;1812131;78;21045;-73
2022/03/10 10:00:12;;;;;;;8.95;5.97;;;;;;;1.68;61.80;103504.37;1802966;78;23377;-73
2022/03/10 10:02:42;;;;;;;11.18;6.15;;;;;;;1.64;61.58;103497.03;1808849;77;20986;-73
2022/03/10 10:05:30;;;;;;;13.28;7.45;;;;;;;1.72;61.60;103510.42;1802409;78;21048;-73
2022/03/10 10:08:01;;;;;;;8.40;5.12;;;;;;;1.80;61.39;103515.13;1822616;77;21052;-72
2022/03/10 10:10:29;;;;;;;7.60;5.10;;;;;;;1.78;60.68;103508.85;1804436;78;21045;-73
2022/03/10 10:12:55;;;;;;;6.85;4.47;;;;;;;1.78;60.48;103510.16;1797833;78;21741;-73
2022/03/10 10:15:22;;;;;;;9.03;5.05;;;;;;;1.73;60.12;103497.09;1800337;79;21037;-72
2022/03/10 10:17:56;;;;;;;8.60;5.17;;;;;;;1.78;59.93;103505.34;1809719;79;21077;-73
2022/03/10 10:20:23;;;;;;;8.45;5.30;;;;;;;1.86;59.84;103508.35;1810453;77;21029;-72
2022/03/10 10:22:51;;;;;;;8.55;5.45;;;;;;;1.90;59.65;103501.45;1809157;78;21038;-72
2022/03/10 10:25:21;;;;;;;9.50;5.95;;;;;;;1.94;59.55;103501.91;1809208;79;22657;-72
2022/03/10 10:27:48;;;;;;;13.68;5.60;;;;;;;2.04;59.65;103506.38;1809902;79;21010;-72
2022/03/10 10:30:15;;;;;;;12.07;5.70;;;;;;;2.07;58.99;103501.51;1811167;79;21626;-72
2022/03/10 10:32:52;;;;;;;9.13;5.67;;;;;;;2.08;58.88;103498.16;1800974;78;21540;-73
2022/03/10 10:35:24;;;;;;;12.90;5.80;;;;;;;2.13;58.70;103503.44;1808932;79;21059;-72
2022/03/10 10:37:52;;;;;;;11.93;6.62;;;;;;;2.17;58.62;103498.56;1808945;79;22220;-72
2022/03/10 10:40:21;;;;;;;12.90;7.53;;;;;;;2.22;58.61;103495.68;1810329;79;21026;-72
2022/03/10 10:42:48;;;;;;;12.15;7.10;;;;;;;2.28;58.46;103498.90;1810515;79;21508;-73
2022/03/10 10:45:35;;;;;;;8.95;5.47;;;;;;;2.38;58.42;103505.95;1796161;77;21061;-73
2022/03/10 10:48:08;;;;;;;7.33;5.53;;;;;;;2.45;57.92;103499.72;1805762;79;21296;-71
2022/03/10 10:50:41;;;;;;;9.63;5.70;;;;;;;2.41;57.09;103494.58;1785726;79;21740;-72
2022/03/10 10:53:08;;;;;;;9.28;5.67;;;;;;;2.39;57.16;103489.61;1785710;79;21583;-72
2022/03/10 10:55:41;;;;;;;11.50;6.05;;;;;;;2.42;57.31;103488.98;1792198;77;21045;-72
2022/03/10 10:58:10;;;;;;;8.78;5.72;;;;;;;2.45;57.26;103491.91;1791936;79;21041;-72
2022/03/10 11:00:46;;;;;;;12.40;7.35;;;;;;;2.48;56.99;103485.74;1787830;79;21109;-72
2022/03/10 11:03:24;;;;;;;10.75;6.42;;;;;;;2.50;56.92;103492.01;1790048;79;21718;-72
2022/03/10 11:05:51;;;;;;;9.38;6.00;;;;;;;2.51;56.70;103497.73;1803428;79;21002;-74
2022/03/10 11:08:23;;;;;;;12.58;6.28;;;;;;;2.51;56.45;103489.54;1807346;78;21069;-74
2022/03/10 11:10:50;;;;;;;10.15;5.75;;;;;;;2.51;56.32;103492.53;1790252;79;21203;-75
2022/03/10 11:13:17;;;;;;;6.87;4.50;;;;;;;2.55;56.30;103495.97;1786219;79;21056;-74
2022/03/10 11:15:44;;;;;;;8.00;4.87;;;;;;;2.58;55.63;103488.89;1755836;80;21829;-73
2022/03/10 11:18:12;;;;;;;10.08;5.12;;;;;;;2.58;55.38;103492.39;1803844;77;21471;-75
2022/03/10 11:20:40;;;;;;;7.62;4.70;;;;;;;2.59;55.19;103486.45;1732142;81;21082;-74
2022/03/10 11:23:40;;;;;;;11.48;6.42;;;;;;;2.58;54.74;103485.89;1746889;80;21549;-74
2022/03/10 11:26:14;;;;;;;15.50;5.60;;;;;;;2.56;54.64;103487.42;1743871;81;21110;-75
2022/03/10 11:28:44;;;;;;;8.40;5.25;;;;;;;2.62;54.69;103481.92;1820932;77;21803;-75
2022/03/10 11:31:10;;;;;;;10.48;4.65;;;;;;;2.61;54.38;103485.27;1822496;77;21033;-75
2022/03/10 11:33:38;;;;;;;9.18;5.50;;;;;;;2.61;54.21;103489.17;1739558;80;21125;-75
2022/03/10 11:36:26;;;;;;;8.63;5.17;;;;;;;2.61;54.27;103487.52;1807059;77;21044;-75
2022/03/10 11:38:57;;;;;;;7.67;4.95;;;;;;;2.69;54.28;103485.69;1784438;78;21077;-74
2022/03/10 11:41:27;;;;;;;7.33;4.97;;;;;;;2.76;53.96;103482.94;1756339;80;21835;-74
2022/03/10 11:43:59;;;;;;;10.85;6.15;;;;;;;2.81;53.85;103483.00;1807895;77;21050;-75
2022/03/10 11:46:29;;;;;;;11.22;5.85;;;;;;;2.88;53.50;103485.84;1738496;81;21169;-74
2022/03/10 11:49:12;;;;;;;11.28;6.35;;;;;;;2.90;53.29;103476.12;1770975;79;21084;-74
2022/03/10 11:51:55;;;;;;;12.58;7.92;;;;;;;2.92;53.19;103476.27;1736710;80;21124;-74
2022/03/10 11:54:27;;;;;;;14.28;7.92;;;;;;;2.93;53.00;103469.02;1740055;80;22498;-75
2022/03/10 11:57:00;;;;;;;9.88;6.67;;;;;;;2.97;53.04;103476.75;1803095;78;21073;-75
2022/03/10 11:59:37;;;;;;;9.90;5.87;;;;;;;2.97;52.81;103473.76;1738151;81;21572;-74
2022/03/10 12:02:04;;;;;;;10.00;5.78;;;;;;;3.01;52.89;103474.59;1804612;77;21579;-75
2022/03/10 12:04:39;;;;;;;8.88;4.83;;;;;;;3.06;52.83;103465.92;1826194;77;21058;-74
2022/03/10 12:07:09;;;;;;;9.05;5.90;;;;;;;3.11;52.68;103462.10;1749123;79;21752;-76
2022/03/10 12:09:39;;;;;;;7.87;5.47;;;;;;;3.10;52.23;103465.09;1730425;81;21126;-75
2022/03/10 12:12:19;;;;;;;5.83;4.50;;;;;;;3.13;52.34;103460.56;1742022;81;21084;-75
2022/03/10 12:14:46;;;;;;;8.33;4.95;;;;;;;3.19;52.33;103452.44;1782355;80;21054;-75
2022/03/10 12:17:45;;;;;;;9.68;6.30;;;;;;;3.26;52.32;103447.08;1819788;77;21322;-75
2022/03/10 12:20:16;;;;;;;7.28;4.80;;;;;;;3.33;52.12;103452.52;1819106;77;21754;-76
2022/03/10 12:23:19;;;;;;;20.55;13.28;;;;;;;3.35;51.58;103457.48;1816792;78;21052;-75
2022/03/10 12:25:49;;;;;;;12.20;6.58;;;;;;;3.36;51.61;103455.04;1815950;77;21130;-75
2022/03/10 12:28:35;;;;;;;13.43;8.75;;;;;;;3.37;51.34;103456.85;1819393;78;21013;-75
2022/03/10 12:31:10;;;;;;;9.18;5.60;;;;;;;3.36;51.19;103460.60;1815228;78;21100;-75
2022/03/10 12:33:56;;;;;;;9.28;5.78;;;;;;;3.29;50.75;103452.20;1811537;77;22653;-75
2022/03/10 12:36:43;;;;;;;12.78;6.87;;;;;;;3.26;50.60;103455.80;1810014;78;21078;-75
2022/03/10 12:39:19;;;;;;;7.75;4.65;;;;;;;3.25;50.51;103455.67;1818468;78;21057;-75
2022/03/10 12:41:52;;;;;;;8.45;5.65;;;;;;;3.23;50.33;103450.67;1817901;77;21360;-75
2022/03/10 12:44:21;;;;;;;8.03;5.12;;;;;;;3.23;50.16;103449.36;1818409;77;21088;-77
2022/03/10 12:46:48;;;;;;;8.40;5.30;;;;;;;3.21;50.13;103442.73;1819502;77;21340;-75
2022/03/10 12:49:36;;;;;;;8.18;5.37;;;;;;;3.23;49.95;103448.06;1750741;80;21625;-75
2022/03/10 12:52:12;;;;;;;9.10;5.30;;;;;;;3.25;49.83;103447.86;1824829;78;21053;-75
2022/03/10 12:54:43;;;;;;;6.42;4.20;;;;;;;3.26;49.77;103451.89;1814275;78;21072;-75
2022/03/10 12:57:11;;;;;;;8.73;5.17;;;;;;;3.25;49.54;103447.47;1819692;77;21033;-75